createdAt,value
2023-01-17T00:00:08.923Z,86.74
2023-01-17T00:00:18.955Z,86.74
2023-01-17T00:00:29.053Z,86.74
2023-01-17T00:00:38.927Z,86.74
2023-01-17T00:00:48.864Z,86.74
2023-01-17T00:00:58.876Z,86.74
2023-01-17T00:01:08.903Z,86.85
2023-01-17T00:01:18.870Z,86.85
2023-01-17T00:01:28.927Z,86.85
2023-01-17T00:01:38.872Z,86.85
2023-01-17T00:01:48.919Z,86.95
2023-01-17T00:01:58.862Z,86.95
2023-01-17T00:02:08.920Z,87.05
2023-01-17T00:02:18.965Z,87.05
2023-01-17T00:02:28.944Z,87.16
2023-01-17T00:02:38.935Z,87.16
2023-01-17T00:02:48.926Z,87.05
2023-01-17T00:02:58.920Z,86.95
2023-01-17T00:03:08.984Z,86.95
2023-01-17T00:03:18.985Z,86.95
2023-01-17T00:03:29.001Z,86.95
2023-01-17T00:03:39.006Z,86.95
2023-01-17T00:03:48.998Z,86.95
2023-01-17T00:03:59.070Z,86.85
2023-01-17T00:04:09.003Z,86.85
2023-01-17T00:04:18.978Z,86.85
2023-01-17T00:04:28.920Z,86.85
2023-01-17T00:04:38.935Z,86.85
2023-01-17T00:04:48.965Z,86.85
2023-01-17T00:04:59.821Z,86.85
2023-01-17T00:05:08.915Z,86.85
2023-01-17T00:05:18.900Z,86.85
2023-01-17T00:05:28.928Z,86.74
2023-01-17T00:05:38.856Z,86.74
2023-01-17T00:05:48.888Z,86.74
2023-01-17T00:05:58.980Z,86.74
2023-01-17T00:06:08.903Z,86.74
2023-01-17T00:06:18.928Z,86.85
2023-01-17T00:06:28.963Z,86.95
2023-01-17T00:06:38.877Z,86.95
2023-01-17T00:06:48.940Z,86.95
2023-01-17T00:06:58.932Z,86.95
2023-01-17T00:07:08.900Z,86.95
2023-01-17T00:07:18.882Z,86.85
2023-01-17T00:07:28.895Z,86.74
2023-01-17T00:07:38.896Z,86.74
2023-01-17T00:07:48.988Z,86.85
2023-01-17T00:07:58.891Z,86.74
2023-01-17T00:08:08.983Z,86.64
2023-01-17T00:08:18.951Z,86.64
2023-01-17T00:08:28.853Z,86.74
2023-01-17T00:08:38.882Z,86.74
2023-01-17T00:08:48.882Z,86.85
2023-01-17T00:08:58.929Z,86.95
2023-01-17T00:09:08.904Z,87.05
2023-01-17T00:09:18.904Z,87.16
2023-01-17T00:09:28.884Z,87.16
2023-01-17T00:09:38.874Z,87.05
2023-01-17T00:09:49.000Z,86.95
2023-01-17T00:09:58.905Z,86.85
2023-01-17T00:10:08.898Z,86.85
2023-01-17T00:10:18.995Z,86.85
2023-01-17T00:10:28.895Z,86.74
2023-01-17T00:10:38.910Z,86.85
2023-01-17T00:10:48.993Z,86.85
2023-01-17T00:10:58.869Z,86.95
2023-01-17T00:11:08.912Z,86.95
2023-01-17T00:11:18.918Z,86.95
2023-01-17T00:11:28.951Z,86.95
2023-01-17T00:11:38.934Z,86.95
2023-01-17T00:11:53.873Z,86.95
2023-01-17T00:11:58.870Z,86.95
2023-01-17T00:12:08.961Z,86.95
2023-01-17T00:12:18.945Z,87.05
2023-01-17T00:12:28.979Z,87.05
2023-01-17T00:12:38.979Z,87.05
2023-01-17T00:12:49.043Z,87.05
2023-01-17T00:12:58.867Z,86.95
2023-01-17T00:13:08.970Z,86.85
2023-01-17T00:13:18.909Z,86.85
2023-01-17T00:13:28.858Z,86.85
2023-01-17T00:13:38.931Z,86.85
2023-01-17T00:13:48.926Z,86.85
2023-01-17T00:13:58.907Z,86.85
2023-01-17T00:14:08.861Z,86.85
2023-01-17T00:14:18.862Z,86.85
2023-01-17T00:14:28.984Z,86.85
2023-01-17T00:14:38.879Z,86.85
2023-01-17T00:14:48.965Z,86.85
2023-01-17T00:14:58.997Z,86.85
2023-01-17T00:15:08.882Z,86.95
2023-01-17T00:15:18.893Z,86.95
2023-01-17T00:15:28.868Z,86.95
2023-01-17T00:15:38.950Z,87.05
2023-01-17T00:15:48.930Z,87.16
2023-01-17T00:15:58.908Z,87.16
2023-01-17T00:16:08.994Z,87.16
2023-01-17T00:16:18.970Z,87.16
2023-01-17T00:16:28.924Z,87.16
2023-01-17T00:16:38.912Z,87.16
2023-01-17T00:16:48.879Z,87.16
2023-01-17T00:16:58.892Z,87.16
2023-01-17T00:17:08.891Z,87.05
2023-01-17T00:17:18.943Z,87.05
2023-01-17T00:17:28.926Z,87.16
2023-01-17T00:17:38.900Z,87.30
2023-01-17T00:17:48.978Z,87.37
2023-01-17T00:17:58.904Z,87.51
2023-01-17T00:18:08.996Z,87.51
2023-01-17T00:18:18.878Z,87.51
2023-01-17T00:18:28.971Z,87.51
2023-01-17T00:18:38.904Z,87.61
2023-01-17T00:18:48.914Z,87.61
2023-01-17T00:18:58.900Z,87.51
2023-01-17T00:19:08.954Z,87.51
2023-01-17T00:19:18.953Z,87.40
2023-01-17T00:19:28.884Z,87.40
2023-01-17T00:19:38.945Z,87.30
2023-01-17T00:19:48.886Z,87.30
2023-01-17T00:19:58.996Z,87.19
2023-01-17T00:20:08.999Z,87.19
2023-01-17T00:20:20.217Z,87.09
2023-01-17T00:20:28.896Z,87.09
2023-01-17T00:20:38.985Z,87.09
2023-01-17T00:20:48.883Z,87.19
2023-01-17T00:20:58.990Z,87.19
2023-01-17T00:21:08.855Z,87.09
2023-01-17T00:21:18.859Z,86.99
2023-01-17T00:21:28.924Z,86.99
2023-01-17T00:21:38.963Z,86.88
2023-01-17T00:21:48.904Z,86.78
2023-01-17T00:21:58.979Z,86.78
2023-01-17T00:22:08.972Z,86.68
2023-01-17T00:22:18.865Z,86.68
2023-01-17T00:22:28.878Z,86.78
2023-01-17T00:22:38.884Z,86.88
2023-01-17T00:22:48.896Z,86.88
2023-01-17T00:22:58.967Z,86.99
2023-01-17T00:23:08.962Z,87.09
2023-01-17T00:23:18.927Z,87.19
2023-01-17T00:23:28.964Z,87.30
2023-01-17T00:23:38.959Z,87.40
2023-01-17T00:23:48.881Z,87.40
2023-01-17T00:23:58.892Z,87.40
2023-01-17T00:24:08.923Z,87.51
2023-01-17T00:24:18.860Z,87.71
2023-01-17T00:24:28.995Z,87.71
2023-01-17T00:24:39.020Z,87.71
2023-01-17T00:24:48.971Z,87.71
2023-01-17T00:24:58.874Z,87.71
2023-01-17T00:25:08.888Z,87.71
2023-01-17T00:25:18.926Z,87.71
2023-01-17T00:25:28.969Z,87.61
2023-01-17T00:25:38.930Z,87.61
2023-01-17T00:25:48.979Z,87.61
2023-01-17T00:25:58.992Z,87.61
2023-01-17T00:26:08.871Z,87.61
2023-01-17T00:26:18.942Z,87.61
2023-01-17T00:26:28.984Z,87.71
2023-01-17T00:26:38.921Z,87.71
2023-01-17T00:26:48.954Z,87.82
2023-01-17T00:26:58.886Z,87.82
2023-01-17T00:27:08.866Z,87.71
2023-01-17T00:27:18.998Z,87.61
2023-01-17T00:27:28.902Z,87.51
2023-01-17T00:27:38.871Z,87.40
2023-01-17T00:27:48.979Z,87.30
2023-01-17T00:27:58.950Z,87.30
2023-01-17T00:28:08.967Z,87.40
2023-01-17T00:28:19.317Z,87.51
2023-01-17T00:28:28.906Z,87.61
2023-01-17T00:28:38.981Z,87.71
2023-01-17T00:28:48.949Z,87.71
2023-01-17T00:28:58.995Z,87.61
2023-01-17T00:29:08.946Z,87.51
2023-01-17T00:29:18.871Z,87.51
2023-01-17T00:29:28.945Z,87.51
2023-01-17T00:29:38.867Z,87.71
2023-01-17T00:29:48.919Z,87.71
2023-01-17T00:29:58.984Z,87.71
2023-01-17T00:30:08.895Z,87.61
2023-01-17T00:30:18.950Z,87.61
2023-01-17T00:30:28.960Z,87.71
2023-01-17T00:30:38.972Z,87.82
2023-01-17T00:30:48.903Z,87.92
2023-01-17T00:30:58.896Z,87.92
2023-01-17T00:31:08.958Z,88.02
2023-01-17T00:31:19.058Z,87.92
2023-01-17T00:31:28.991Z,87.92
2023-01-17T00:31:38.885Z,87.82
2023-01-17T00:31:48.918Z,87.61
2023-01-17T00:31:58.853Z,87.40
2023-01-17T00:32:08.966Z,87.19
2023-01-17T00:32:18.867Z,87.09
2023-01-17T00:32:28.899Z,86.99
2023-01-17T00:32:38.983Z,86.99
2023-01-17T00:32:48.854Z,86.99
2023-01-17T00:32:58.851Z,87.09
2023-01-17T00:33:08.995Z,87.19
2023-01-17T00:33:18.913Z,87.30
2023-01-17T00:33:28.898Z,87.19
2023-01-17T00:33:38.995Z,87.19
2023-01-17T00:33:48.926Z,87.19
2023-01-17T00:33:58.953Z,87.19
2023-01-17T00:34:08.924Z,87.19
2023-01-17T00:34:18.849Z,87.19
2023-01-17T00:34:28.985Z,87.19
2023-01-17T00:34:38.971Z,87.19
2023-01-17T00:34:48.911Z,87.19
2023-01-17T00:34:58.890Z,87.19
2023-01-17T00:35:08.887Z,87.30
2023-01-17T00:35:18.972Z,87.51
2023-01-17T00:35:28.924Z,87.61
2023-01-17T00:35:38.896Z,87.71
2023-01-17T00:35:48.972Z,87.82
2023-01-17T00:35:58.968Z,87.92
2023-01-17T00:36:08.979Z,87.92
2023-01-17T00:36:18.901Z,87.71
2023-01-17T00:36:28.898Z,87.51
2023-01-17T00:36:38.956Z,87.40
2023-01-17T00:36:48.889Z,87.30
2023-01-17T00:36:58.970Z,87.19
2023-01-17T00:37:08.858Z,87.19
2023-01-17T00:37:18.886Z,87.19
2023-01-17T00:37:28.977Z,87.09
2023-01-17T00:37:38.953Z,87.09
2023-01-17T00:37:48.969Z,87.19
2023-01-17T00:37:58.855Z,87.30
2023-01-17T00:38:08.865Z,87.30
2023-01-17T00:38:18.935Z,87.19
2023-01-17T00:38:28.857Z,87.19
2023-01-17T00:38:38.966Z,87.19
2023-01-17T00:38:48.881Z,87.19
2023-01-17T00:38:58.899Z,87.19
2023-01-17T00:39:08.930Z,87.19
2023-01-17T00:39:18.985Z,87.19
2023-01-17T00:39:28.925Z,87.19
2023-01-17T00:39:38.864Z,87.19
2023-01-17T00:39:48.888Z,87.19
2023-01-17T00:39:58.966Z,87.19
2023-01-17T00:40:08.895Z,87.30
2023-01-17T00:40:18.918Z,87.30
2023-01-17T00:40:28.952Z,87.19
2023-01-17T00:40:38.930Z,87.19
2023-01-17T00:40:48.997Z,87.19
2023-01-17T00:40:58.932Z,87.19
2023-01-17T00:41:08.922Z,87.19
2023-01-17T00:41:19.001Z,87.19
2023-01-17T00:41:28.995Z,87.19
2023-01-17T00:41:38.850Z,87.19
2023-01-17T00:41:48.926Z,87.09
2023-01-17T00:42:02.624Z,86.99
2023-01-17T00:42:08.967Z,87.09
2023-01-17T00:42:18.985Z,87.19
2023-01-17T00:42:28.870Z,87.19
2023-01-17T00:42:38.933Z,87.09
2023-01-17T00:42:48.877Z,86.99
2023-01-17T00:42:58.908Z,86.88
2023-01-17T00:43:08.966Z,86.78
2023-01-17T00:43:18.939Z,86.78
2023-01-17T00:43:28.877Z,86.78
2023-01-17T00:43:38.911Z,86.78
2023-01-17T00:43:48.896Z,86.78
2023-01-17T00:43:58.874Z,86.78
2023-01-17T00:44:08.927Z,86.88
2023-01-17T00:44:18.883Z,86.88
2023-01-17T00:44:28.905Z,86.99
2023-01-17T00:44:38.928Z,87.09
2023-01-17T00:44:48.978Z,87.09
2023-01-17T00:44:58.944Z,87.19
2023-01-17T00:45:08.888Z,87.30
2023-01-17T00:45:18.884Z,87.40
2023-01-17T00:45:28.992Z,87.51
2023-01-17T00:45:38.919Z,87.51
2023-01-17T00:45:48.871Z,87.61
2023-01-17T00:45:58.966Z,87.61
2023-01-17T00:46:08.965Z,87.51
2023-01-17T00:46:18.906Z,87.51
2023-01-17T00:46:28.906Z,87.51
2023-01-17T00:46:38.999Z,87.51
2023-01-17T00:46:49.009Z,87.51
2023-01-17T00:46:58.914Z,87.51
2023-01-17T00:47:08.897Z,87.51
2023-01-17T00:47:18.931Z,87.51
2023-01-17T00:47:28.901Z,87.51
2023-01-17T00:47:38.890Z,87.40
2023-01-17T00:47:48.871Z,87.40
2023-01-17T00:47:58.852Z,87.40
2023-01-17T00:48:08.868Z,87.40
2023-01-17T00:48:18.965Z,87.40
2023-01-17T00:48:28.901Z,87.40
2023-01-17T00:48:38.859Z,87.30
2023-01-17T00:48:48.949Z,87.30
2023-01-17T00:48:58.887Z,87.19
2023-01-17T00:49:09.004Z,87.19
2023-01-17T00:49:18.879Z,87.30
2023-01-17T00:49:28.886Z,87.30
2023-01-17T00:49:38.918Z,87.30
2023-01-17T00:49:48.883Z,87.30
2023-01-17T00:49:58.862Z,87.19
2023-01-17T00:50:08.887Z,87.09
2023-01-17T00:50:18.941Z,87.09
2023-01-17T00:50:28.874Z,87.09
2023-01-17T00:50:39.003Z,87.09
2023-01-17T00:50:48.868Z,87.19
2023-01-17T00:50:58.926Z,87.19
2023-01-17T00:51:08.972Z,87.19
2023-01-17T00:51:18.922Z,87.19
2023-01-17T00:51:28.982Z,87.19
2023-01-17T00:51:38.934Z,87.19
2023-01-17T00:51:48.933Z,87.19
2023-01-17T00:51:58.849Z,87.19
2023-01-17T00:52:08.947Z,87.19
2023-01-17T00:52:18.921Z,87.19
2023-01-17T00:52:28.850Z,87.19
2023-01-17T00:52:38.881Z,87.09
2023-01-17T00:52:48.874Z,86.99
2023-01-17T00:52:58.889Z,86.88
2023-01-17T00:53:08.961Z,86.88
2023-01-17T00:53:18.872Z,86.74
2023-01-17T00:53:28.887Z,86.78
2023-01-17T00:53:38.946Z,86.78
2023-01-17T00:53:48.954Z,86.78
2023-01-17T00:53:58.893Z,86.78
2023-01-17T00:54:08.855Z,86.88
2023-01-17T00:54:19.151Z,86.99
2023-01-17T00:54:28.910Z,87.09
2023-01-17T00:54:38.933Z,86.99
2023-01-17T00:54:48.920Z,86.99
2023-01-17T00:54:58.951Z,86.95
2023-01-17T00:55:08.933Z,86.88
2023-01-17T00:55:18.940Z,86.85
2023-01-17T00:55:28.950Z,86.88
2023-01-17T00:55:38.910Z,86.88
2023-01-17T00:55:48.931Z,86.74
2023-01-17T00:55:58.930Z,86.74
2023-01-17T00:56:08.865Z,86.64
2023-01-17T00:56:18.952Z,86.64
2023-01-17T00:56:28.990Z,86.54
2023-01-17T00:56:38.853Z,86.54
2023-01-17T00:56:48.871Z,86.43
2023-01-17T00:56:58.946Z,86.33
2023-01-17T00:57:08.859Z,86.22
2023-01-17T00:57:18.922Z,86.22
2023-01-17T00:57:28.876Z,86.22
2023-01-17T00:57:38.963Z,86.22
2023-01-17T00:57:48.959Z,86.22
2023-01-17T00:57:58.862Z,86.22
2023-01-17T00:58:08.910Z,86.22
2023-01-17T00:58:18.885Z,86.33
2023-01-17T00:58:28.872Z,86.33
2023-01-17T00:58:38.936Z,86.33
2023-01-17T00:58:48.861Z,86.33
2023-01-17T00:58:58.908Z,86.43
2023-01-17T00:59:08.925Z,86.43
2023-01-17T00:59:18.928Z,86.43
2023-01-17T00:59:28.937Z,86.43
2023-01-17T00:59:38.881Z,86.43
2023-01-17T00:59:48.938Z,86.43
2023-01-17T00:59:58.955Z,86.43
2023-01-17T01:00:08.885Z,86.54
2023-01-17T01:00:18.997Z,86.54
2023-01-17T01:00:28.982Z,86.54
2023-01-17T01:00:38.966Z,86.54
2023-01-17T01:00:49.116Z,86.64
2023-01-17T01:00:59.015Z,86.54
2023-01-17T01:01:09.048Z,86.54
2023-01-17T01:01:19.055Z,86.54
2023-01-17T01:01:29.068Z,86.54
2023-01-17T01:01:39.075Z,86.54
2023-01-17T01:01:49.103Z,86.54
2023-01-17T01:01:59.142Z,86.54
2023-01-17T01:02:09.024Z,86.54
2023-01-17T01:02:18.944Z,86.54
2023-01-17T01:02:28.995Z,86.54
2023-01-17T01:02:38.923Z,86.43
2023-01-17T01:02:48.972Z,86.43
2023-01-17T01:02:58.907Z,86.43
2023-01-17T01:03:08.976Z,86.43
2023-01-17T01:03:18.916Z,86.43
2023-01-17T01:03:28.870Z,86.33
2023-01-17T01:03:38.919Z,86.33
2023-01-17T01:03:48.861Z,86.33
2023-01-17T01:03:58.881Z,86.33
2023-01-17T01:04:08.948Z,86.33
2023-01-17T01:04:18.905Z,86.33
2023-01-17T01:04:28.977Z,86.33
2023-01-17T01:04:38.939Z,86.43
2023-01-17T01:04:48.978Z,86.54
2023-01-17T01:04:58.945Z,86.43
2023-01-17T01:05:08.908Z,86.43
2023-01-17T01:05:18.876Z,86.33
2023-01-17T01:05:28.936Z,86.22
2023-01-17T01:05:38.926Z,86.22
2023-01-17T01:05:48.934Z,86.22
2023-01-17T01:05:58.954Z,86.22
2023-01-17T01:06:08.933Z,86.22
2023-01-17T01:06:18.960Z,86.22
2023-01-17T01:06:28.931Z,86.12
2023-01-17T01:06:39.017Z,86.12
2023-01-17T01:06:48.865Z,86.12
2023-01-17T01:06:58.886Z,86.02
2023-01-17T01:07:08.965Z,86.02
2023-01-17T01:07:18.910Z,85.91
2023-01-17T01:07:28.978Z,85.81
2023-01-17T01:07:38.972Z,85.81
2023-01-17T01:07:48.875Z,85.81
2023-01-17T01:07:58.884Z,85.81
2023-01-17T01:08:08.915Z,85.81
2023-01-17T01:08:18.972Z,85.81
2023-01-17T01:08:28.960Z,85.71
2023-01-17T01:08:38.902Z,85.71
2023-01-17T01:08:48.959Z,85.71
2023-01-17T01:08:58.989Z,85.60
2023-01-17T01:09:08.855Z,85.60
2023-01-17T01:09:18.922Z,85.50
2023-01-17T01:09:28.868Z,85.50
2023-01-17T01:09:38.991Z,85.39
2023-01-17T01:09:48.849Z,85.39
2023-01-17T01:09:58.851Z,85.39
2023-01-17T01:10:08.897Z,85.39
2023-01-17T01:10:18.872Z,85.39
2023-01-17T01:10:28.913Z,85.50
2023-01-17T01:10:38.883Z,85.50
2023-01-17T01:10:48.988Z,85.60
2023-01-17T01:10:58.914Z,85.81
2023-01-17T01:11:08.914Z,86.02
2023-01-17T01:11:18.889Z,86.02
2023-01-17T01:11:28.980Z,86.12
2023-01-17T01:11:38.962Z,86.22
2023-01-17T01:11:48.988Z,86.22
2023-01-17T01:11:58.967Z,86.22
2023-01-17T01:12:08.857Z,86.12
2023-01-17T01:12:18.979Z,86.12
2023-01-17T01:12:28.970Z,86.02
2023-01-17T01:12:38.920Z,86.02
2023-01-17T01:12:48.919Z,86.02
2023-01-17T01:12:58.902Z,86.02
2023-01-17T01:13:08.885Z,85.91
2023-01-17T01:13:18.944Z,85.91
2023-01-17T01:13:28.981Z,86.02
2023-01-17T01:13:38.989Z,86.02
2023-01-17T01:13:48.935Z,86.02
2023-01-17T01:13:58.916Z,86.02
2023-01-17T01:14:08.865Z,85.91
2023-01-17T01:14:18.935Z,85.91
2023-01-17T01:14:28.975Z,85.91
2023-01-17T01:14:38.899Z,85.91
2023-01-17T01:14:48.987Z,85.91
2023-01-17T01:14:58.905Z,85.91
2023-01-17T01:15:08.979Z,85.91
2023-01-17T01:15:18.865Z,85.81
2023-01-17T01:15:28.956Z,85.71
2023-01-17T01:15:38.934Z,85.71
2023-01-17T01:15:48.902Z,85.60
2023-01-17T01:15:58.954Z,85.60
2023-01-17T01:16:09.068Z,85.60
2023-01-17T01:16:19.006Z,85.60
2023-01-17T01:16:29.044Z,85.60
2023-01-17T01:16:38.876Z,85.60
2023-01-17T01:16:48.917Z,85.60
2023-01-17T01:16:58.913Z,85.60
2023-01-17T01:17:08.959Z,85.60
2023-01-17T01:17:18.952Z,85.60
2023-01-17T01:17:28.902Z,85.71
2023-01-17T01:17:38.868Z,85.71
2023-01-17T01:17:48.930Z,85.71
2023-01-17T01:17:58.973Z,85.71
2023-01-17T01:18:08.967Z,85.71
2023-01-17T01:18:18.862Z,85.71
2023-01-17T01:18:28.954Z,85.71
2023-01-17T01:18:38.905Z,85.71
2023-01-17T01:18:48.883Z,85.60
2023-01-17T01:18:58.859Z,85.56
2023-01-17T01:19:08.910Z,85.56
2023-01-17T01:19:18.973Z,85.56
2023-01-17T01:19:28.937Z,85.60
2023-01-17T01:19:43.459Z,85.71
2023-01-17T01:19:48.956Z,85.66
2023-01-17T01:19:58.891Z,85.66
2023-01-17T01:20:08.880Z,85.71
2023-01-17T01:20:18.933Z,85.66
2023-01-17T01:20:28.897Z,85.66
2023-01-17T01:20:38.899Z,85.66
2023-01-17T01:20:53.613Z,85.66
2023-01-17T01:20:58.867Z,85.66
2023-01-17T01:21:08.862Z,85.56
2023-01-17T01:21:18.895Z,85.56
2023-01-17T01:21:28.853Z,85.56
2023-01-17T01:21:38.965Z,85.46
2023-01-17T01:21:48.854Z,85.35
2023-01-17T01:21:58.941Z,85.35
2023-01-17T01:22:08.952Z,85.25
2023-01-17T01:22:18.902Z,85.14
2023-01-17T01:22:28.912Z,85.14
2023-01-17T01:22:38.877Z,85.14
2023-01-17T01:22:48.901Z,85.14
2023-01-17T01:22:58.854Z,85.14
2023-01-17T01:23:08.916Z,85.14
2023-01-17T01:23:18.985Z,85.14
2023-01-17T01:23:28.847Z,85.14
2023-01-17T01:23:38.955Z,85.14
2023-01-17T01:23:48.904Z,85.14
2023-01-17T01:23:58.922Z,85.25
2023-01-17T01:24:08.924Z,85.35
2023-01-17T01:24:18.915Z,85.35
2023-01-17T01:24:28.899Z,85.46
2023-01-17T01:24:38.893Z,85.56
2023-01-17T01:24:48.962Z,85.66
2023-01-17T01:24:58.971Z,85.66
2023-01-17T01:25:08.880Z,85.66
2023-01-17T01:25:18.902Z,85.66
2023-01-17T01:25:28.937Z,85.66
2023-01-17T01:25:38.938Z,85.56
2023-01-17T01:25:48.959Z,85.50
2023-01-17T01:25:58.908Z,85.50
2023-01-17T01:26:08.884Z,85.60
2023-01-17T01:26:18.867Z,85.60
2023-01-17T01:26:28.991Z,85.81
2023-01-17T01:26:38.904Z,85.91
2023-01-17T01:26:48.875Z,86.02
2023-01-17T01:26:58.853Z,86.22
2023-01-17T01:27:08.976Z,86.33
2023-01-17T01:27:18.905Z,86.33
2023-01-17T01:27:28.940Z,86.43
2023-01-17T01:27:38.860Z,86.43
2023-01-17T01:27:48.964Z,86.43
2023-01-17T01:27:58.861Z,86.43
2023-01-17T01:28:08.912Z,86.43
2023-01-17T01:28:18.867Z,86.33
2023-01-17T01:28:28.867Z,86.33
2023-01-17T01:28:38.915Z,86.22
2023-01-17T01:28:48.853Z,86.22
2023-01-17T01:28:58.890Z,86.22
2023-01-17T01:29:08.949Z,86.22
2023-01-17T01:29:18.876Z,86.22
2023-01-17T01:29:28.976Z,86.22
2023-01-17T01:29:38.979Z,86.22
2023-01-17T01:29:48.983Z,86.22
2023-01-17T01:29:58.883Z,86.22
2023-01-17T01:30:08.867Z,86.22
2023-01-17T01:30:18.952Z,86.22
2023-01-17T01:30:28.884Z,86.33
2023-01-17T01:30:38.960Z,86.33
2023-01-17T01:30:48.959Z,86.33
2023-01-17T01:30:58.914Z,86.33
2023-01-17T01:31:09.046Z,86.33
2023-01-17T01:31:18.890Z,86.33
2023-01-17T01:31:28.967Z,86.33
2023-01-17T01:31:39.055Z,86.33
2023-01-17T01:31:48.939Z,86.47
2023-01-17T01:31:58.882Z,86.47
2023-01-17T01:32:08.921Z,86.47
2023-01-17T01:32:18.971Z,86.47
2023-01-17T01:32:28.868Z,86.47
2023-01-17T01:32:38.930Z,86.36
2023-01-17T01:32:48.904Z,86.47
2023-01-17T01:32:58.882Z,86.57
2023-01-17T01:33:08.882Z,86.68
2023-01-17T01:33:18.946Z,86.78
2023-01-17T01:33:28.957Z,86.57
2023-01-17T01:33:38.862Z,86.47
2023-01-17T01:33:48.958Z,86.36
2023-01-17T01:33:58.978Z,86.36
2023-01-17T01:34:08.928Z,86.36
2023-01-17T01:34:18.992Z,86.36
2023-01-17T01:34:28.921Z,86.36
2023-01-17T01:34:38.894Z,86.36
2023-01-17T01:34:48.976Z,86.36
2023-01-17T01:34:58.980Z,86.36
2023-01-17T01:35:08.979Z,86.36
2023-01-17T01:35:18.964Z,86.47
2023-01-17T01:35:28.872Z,86.57
2023-01-17T01:35:38.989Z,86.57
2023-01-17T01:35:48.946Z,86.57
2023-01-17T01:35:58.886Z,86.57
2023-01-17T01:36:08.987Z,86.57
2023-01-17T01:36:18.929Z,86.47
2023-01-17T01:36:28.930Z,86.47
2023-01-17T01:36:38.874Z,86.47
2023-01-17T01:36:48.893Z,86.47
2023-01-17T01:36:58.900Z,86.47
2023-01-17T01:37:08.855Z,86.47
2023-01-17T01:37:18.958Z,86.47
2023-01-17T01:37:28.961Z,86.47
2023-01-17T01:37:38.850Z,86.47
2023-01-17T01:37:48.947Z,86.47
2023-01-17T01:37:58.971Z,86.47
2023-01-17T01:38:08.861Z,86.36
2023-01-17T01:38:18.895Z,86.36
2023-01-17T01:38:28.870Z,86.36
2023-01-17T01:38:38.985Z,86.36
2023-01-17T01:38:48.987Z,86.36
2023-01-17T01:38:59.095Z,86.36
2023-01-17T01:39:08.853Z,86.26
2023-01-17T01:39:18.959Z,86.26
2023-01-17T01:39:28.969Z,86.26
2023-01-17T01:39:38.956Z,86.36
2023-01-17T01:39:48.973Z,86.36
2023-01-17T01:39:58.950Z,86.47
2023-01-17T01:40:08.995Z,86.47
2023-01-17T01:40:18.889Z,86.57
2023-01-17T01:40:28.851Z,86.47
2023-01-17T01:40:38.977Z,86.47
2023-01-17T01:40:48.909Z,86.47
2023-01-17T01:40:58.919Z,86.47
2023-01-17T01:41:08.973Z,86.47
2023-01-17T01:41:18.943Z,86.57
2023-01-17T01:41:28.868Z,86.57
2023-01-17T01:41:38.922Z,86.68
2023-01-17T01:41:48.870Z,86.78
2023-01-17T01:41:58.948Z,86.78
2023-01-17T01:42:08.868Z,86.88
2023-01-17T01:42:18.922Z,86.78
2023-01-17T01:42:28.929Z,86.78
2023-01-17T01:42:38.908Z,86.68
2023-01-17T01:42:48.910Z,86.68
2023-01-17T01:42:58.889Z,86.57
2023-01-17T01:43:08.896Z,86.57
2023-01-17T01:43:18.877Z,86.57
2023-01-17T01:43:28.903Z,86.57
2023-01-17T01:43:39.017Z,86.68
2023-01-17T01:43:48.952Z,86.68
2023-01-17T01:43:58.946Z,86.68
2023-01-17T01:44:08.863Z,86.68
2023-01-17T01:44:18.855Z,86.68
2023-01-17T01:44:28.927Z,86.68
2023-01-17T01:44:38.901Z,86.68
2023-01-17T01:44:48.953Z,86.68
2023-01-17T01:44:58.919Z,86.68
2023-01-17T01:45:08.978Z,86.68
2023-01-17T01:45:18.895Z,86.68
2023-01-17T01:45:28.973Z,86.78
2023-01-17T01:45:38.990Z,86.78
2023-01-17T01:45:48.875Z,86.68
2023-01-17T01:45:59.026Z,86.68
2023-01-17T01:46:08.970Z,86.68
2023-01-17T01:46:18.914Z,86.68
2023-01-17T01:46:28.898Z,86.68
2023-01-17T01:46:38.921Z,86.57
2023-01-17T01:46:48.941Z,86.47
2023-01-17T01:46:58.897Z,86.36
2023-01-17T01:47:08.980Z,86.36
2023-01-17T01:47:18.894Z,86.36
2023-01-17T01:47:28.970Z,86.47
2023-01-17T01:47:38.995Z,86.47
2023-01-17T01:47:48.900Z,86.47
2023-01-17T01:47:58.981Z,86.36
2023-01-17T01:48:08.857Z,86.36
2023-01-17T01:48:18.979Z,86.36
2023-01-17T01:48:28.967Z,86.26
2023-01-17T01:48:38.876Z,86.26
2023-01-17T01:48:48.988Z,86.26
2023-01-17T01:48:58.894Z,86.26
2023-01-17T01:49:08.857Z,86.26
2023-01-17T01:49:18.880Z,86.26
2023-01-17T01:49:28.902Z,86.26
2023-01-17T01:49:38.887Z,86.36
2023-01-17T01:49:48.896Z,86.36
2023-01-17T01:49:58.986Z,86.47
2023-01-17T01:50:08.880Z,86.47
2023-01-17T01:50:18.947Z,86.36
2023-01-17T01:50:28.925Z,86.26
2023-01-17T01:50:38.954Z,86.16
2023-01-17T01:50:48.941Z,86.16
2023-01-17T01:50:58.966Z,86.16
2023-01-17T01:51:08.902Z,86.16
2023-01-17T01:51:18.968Z,86.16
2023-01-17T01:51:28.921Z,86.16
2023-01-17T01:51:38.996Z,86.16
2023-01-17T01:51:48.888Z,86.05
2023-01-17T01:51:58.968Z,86.05
2023-01-17T01:52:09.033Z,86.05
2023-01-17T01:52:18.867Z,86.05
2023-01-17T01:52:28.950Z,86.05
2023-01-17T01:52:38.901Z,86.05
2023-01-17T01:52:48.927Z,85.95
2023-01-17T01:52:58.929Z,85.95
2023-01-17T01:53:08.917Z,86.05
2023-01-17T01:53:18.894Z,86.05
2023-01-17T01:53:28.865Z,86.16
2023-01-17T01:53:38.920Z,86.26
2023-01-17T01:53:48.943Z,86.26
2023-01-17T01:53:58.945Z,86.26
2023-01-17T01:54:08.905Z,86.26
2023-01-17T01:54:18.951Z,86.36
2023-01-17T01:54:28.879Z,86.36
2023-01-17T01:54:40.943Z,86.47
2023-01-17T01:54:48.979Z,86.57
2023-01-17T01:54:58.867Z,86.47
2023-01-17T01:55:08.981Z,86.47
2023-01-17T01:55:18.873Z,86.36
2023-01-17T01:55:28.850Z,86.47
2023-01-17T01:55:38.988Z,86.57
2023-01-17T01:55:48.969Z,86.57
2023-01-17T01:55:58.871Z,86.57
2023-01-17T01:56:08.969Z,86.47
2023-01-17T01:56:18.913Z,86.47
2023-01-17T01:56:28.937Z,86.47
2023-01-17T01:56:38.902Z,86.36
2023-01-17T01:56:48.900Z,86.47
2023-01-17T01:56:58.901Z,86.36
2023-01-17T01:57:08.911Z,86.36
2023-01-17T01:57:18.901Z,86.36
2023-01-17T01:57:28.970Z,86.36
2023-01-17T01:57:38.907Z,86.26
2023-01-17T01:57:48.871Z,86.36
2023-01-17T01:57:58.982Z,86.26
2023-01-17T01:58:08.959Z,86.16
2023-01-17T01:58:18.948Z,85.95
2023-01-17T01:58:28.854Z,85.85
2023-01-17T01:58:38.861Z,85.85
2023-01-17T01:58:48.888Z,85.85
2023-01-17T01:58:58.923Z,85.85
2023-01-17T01:59:08.901Z,85.85
2023-01-17T01:59:18.915Z,85.74
2023-01-17T01:59:28.883Z,85.74
2023-01-17T01:59:38.935Z,85.64
2023-01-17T01:59:48.879Z,85.53
2023-01-17T01:59:58.874Z,85.64
2023-01-17T02:00:08.892Z,85.74
2023-01-17T02:00:18.871Z,85.85
2023-01-17T02:00:28.920Z,85.95
2023-01-17T02:00:38.941Z,86.16
2023-01-17T02:00:49.148Z,86.26
2023-01-17T02:00:58.948Z,86.36
2023-01-17T02:01:08.992Z,86.26
2023-01-17T02:01:19.048Z,86.26
2023-01-17T02:01:29.071Z,86.26
2023-01-17T02:01:38.980Z,85.95
2023-01-17T02:01:49.086Z,85.74
2023-01-17T02:01:58.920Z,85.64
2023-01-17T02:02:08.850Z,85.64
2023-01-17T03:43:40.900Z,89.60
2023-01-17T03:43:41.075Z,89.50
2023-01-17T03:43:41.298Z,89.50
2023-01-17T03:43:41.511Z,89.50
2023-01-17T03:43:41.721Z,89.50
2023-01-17T03:43:41.964Z,89.50
2023-01-17T03:43:50.954Z,89.29
2023-01-17T03:44:01.028Z,89.08
2023-01-17T03:44:11.003Z,88.77
2023-01-17T03:44:20.968Z,88.67
2023-01-17T03:44:31.034Z,88.56
2023-01-17T03:44:40.923Z,88.56
2023-01-17T03:44:50.961Z,88.46
2023-01-17T03:45:00.972Z,88.35
2023-01-17T03:45:11.027Z,88.25
2023-01-17T03:45:20.967Z,88.15
2023-01-17T03:45:30.956Z,88.25
2023-01-17T03:45:40.959Z,88.25
2023-01-17T03:45:50.949Z,88.25
2023-01-17T03:46:00.957Z,88.35
2023-01-17T03:46:11.065Z,88.35
2023-01-17T03:46:21.001Z,88.46
2023-01-17T03:46:30.963Z,88.56
2023-01-17T03:46:40.992Z,88.56
2023-01-17T03:46:50.949Z,88.35
2023-01-17T03:47:00.915Z,87.94
2023-01-17T03:47:10.989Z,87.63
2023-01-17T03:47:20.933Z,87.42
2023-01-17T03:47:30.970Z,87.42
2023-01-17T03:47:40.969Z,87.42
2023-01-17T03:47:50.993Z,87.32
2023-01-17T03:48:00.969Z,87.32
2023-01-17T03:48:10.980Z,87.32
2023-01-17T03:48:21.011Z,87.32
2023-01-17T03:48:30.944Z,87.32
2023-01-17T03:48:41.020Z,87.42
2023-01-17T03:48:50.982Z,87.42
2023-01-17T03:49:01.026Z,87.42
2023-01-17T03:49:11.032Z,87.42
2023-01-17T03:49:21.019Z,87.38